• Join FlightAware (Why Join?)
  • Login
  • US Flag 
04:04AM EST


 

Airport Tracker/Info


-or-


 

Live Flight TrackerFlight Track Log ✈ EGF2839 ✈ 06-May-2013 ✈ KDFW - KGRR

Flight Track Log - Related Links

Times and Time Zones

All times are in EDT time to prevent confusion due to time zone crossing. See the EGF2839 flight status page for this flight to view local times or setup timezone preferences in your user account.

Time Position Orientation Groundspeed Altitude Reporting Facility
EDT Latitude Longitude Course Direction KTS MPH feet Rate Location/Type
04:12PM 32.9167 -97.0333 357° North 156 180 1,200  Level Dallas / Fort Worth TRACON
04:13PM 32.9333 -97.0333 360° North 178 205 1,900 2,340 Climbing Dallas / Fort Worth TRACON
04:15PM 33.0920 -96.8800 39° Northeast  Level Estimated
04:15PM 32.8176 -96.8065 10° North  Level FlightAware Approximate
04:15PM 33.1103 -96.9819 39° Northeast 267 307 8,200  Level Fort Worth Center
04:16PM 32.9285 -96.8000 North  Level FlightAware Approximate
04:16PM 33.1728 -96.9519 22° Northeast 272 313 9,900  Level Fort Worth Center
04:17PM 33.0399 -96.8000 North  Level FlightAware Approximate
04:17PM 33.2542 -96.9142 21° North 277 319 11,700  Level Fort Worth Center
04:18PM 33.1511 -96.8053 357° North  Level FlightAware Approximate
04:18PM 33.3417 -96.8789 19° North 305 351 12,300  Level Fort Worth Center
04:19PM 33.4333 -96.8336 22° Northeast 343 395 12,900 840 Climbing Fort Worth Center
04:20PM 33.5247 -96.7781 27° Northeast 357 411 14,000 1,200 Climbing Fort Worth Center
04:21PM 33.6122 -96.7200 29° Northeast 362 417 15,400 1,200 Climbing Fort Worth Center
04:22PM 33.7058 -96.6619 27° Northeast 362 417 16,400 1,020 Climbing Fort Worth Center
04:23PM 33.7950 -96.6036 29° Northeast 362 417 17,500 900 Climbing Fort Worth Center
04:24PM 33.8844 -96.5478 27° Northeast 362 417 18,300 900 Climbing Fort Worth Center
04:25PM 33.9758 -96.4867 29° Northeast 362 417 19,300 960 Climbing Fort Worth Center
04:26PM 34.0694 -96.4281 27° Northeast 367 422 20,300 960 Climbing Fort Worth Center
04:28PM 34.2475 -96.2778 35° Northeast 385 443 22,300 960 Climbing Fort Worth Center
04:29PM 34.3408 -96.2011 34° Northeast 397 457 23,300 960 Climbing Fort Worth Center
04:30PM 34.4339 -96.1269 33° Northeast 397 457 24,300 1,020 Climbing Fort Worth Center
04:32PM 34.5284 -96.0221 42° Northeast  Level FlightAware Approximate
04:34PM 34.7956 -95.8256 43° Northeast 392 451 28,400  Level Fort Worth Center
04:35PM 34.8842 -95.7531 34° Northeast 392 451 29,400 960 Climbing Fort Worth Center
04:36PM 34.9750 -95.6803 33° Northeast 392 451 30,400 840 Climbing Fort Worth Center
04:37PM 35.0617 -95.6000 37° Northeast 392 451 31,100 540 Climbing Fort Worth Center
04:39PM 35.1323 -95.4251 43° Northeast  Level FlightAware Approximate
04:39PM 35.1933 -95.4514 43° Northeast 421 484 31,900  Level Memphis Center
04:40PM 35.2135 -95.3317 43° Northeast  Level FlightAware Approximate
04:40PM 35.2747 -95.3469 46° Northeast 421 484 32,500  Level Memphis Center
04:41PM 35.3603 -95.2425 45° Northeast 421 484 33,000 240 Climbing Memphis Center
04:42PM 35.4456 -95.1356 46° Northeast 427 491 33,000  Level Memphis Center
04:43PM 35.5333 -95.0258 45° Northeast 440 506 33,000  Level Memphis Center
04:44PM 35.6208 -94.9158 46° Northeast 440 506 33,000  Level Memphis Center
04:45PM 35.7061 -94.8053 46° Northeast 440 506 33,000  Level Memphis Center
04:47PM 35.8162 -94.6627 46° Northeast  Level FlightAware Approximate
04:48PM 35.9656 -94.4783 43° Northeast 440 506 33,000  Level Memphis Center
04:50PM 36.0837 -94.3455 42° Northeast  Level Estimated
04:50PM 36.1414 -94.2583 42° Northeast 440 506 33,000  Level Memphis Center
04:51PM 36.2261 -94.1492 46° Northeast 440 506 33,000  Level Memphis Center
04:52PM 36.3125 -94.0450 44° Northeast 435 501 33,000  Level Memphis Center
04:53PM 36.4011 -93.9433 43° Northeast 430 495 33,000  Level Memphis Center
04:54PM 36.3464 -93.9854 43° Northeast  Level FlightAware Approximate
04:55PM 36.5411 -93.7825 43° Northeast 434 499 33,000  Level Kansas City Center
04:56PM 36.6372 -93.6683 44° Northeast 435 501 33,000  Level Kansas City Center
04:57PM 36.7250 -93.5667 43° Northeast 433 498 33,000  Level Kansas City Center
04:58PM 36.8128 -93.4636 43° Northeast 434 499 33,000  Level Kansas City Center
04:59PM 36.9008 -93.3600 43° Northeast 432 497 33,000  Level Kansas City Center
05:00PM 36.9894 -93.2561 43° Northeast 433 498 33,000  Level Kansas City Center
05:01PM 37.0775 -93.1514 43° Northeast 435 501 33,000 -240 Level Kansas City Center
05:02PM 37.1839 -93.0239 44° Northeast 438 504 32,600 -420 Descending Kansas City Center
05:04PM 37.3133 -92.8673 44° Northeast  Level FlightAware Approximate
05:06PM 37.5319 -92.6039 44° Northeast 438 504 31,000  Level Kansas City Center
05:07PM 37.6200 -92.4983 44° Northeast 439 505 31,000  Level Kansas City Center
05:09PM 37.7355 -92.3556 44° Northeast  Level FlightAware Approximate
05:09PM 37.8092 -92.2653 44° Northeast 440 506 31,000  Level Kansas City Center
05:10PM 37.8975 -92.1586 44° Northeast 440 506 31,000  Level Kansas City Center
05:11PM 37.8602 -92.1972 44° Northeast  Level FlightAware Approximate
05:12PM 38.0045 -92.0241 45° Northeast  Level FlightAware Approximate
05:12PM 37.9380 -92.1006 44° Northeast  Level FlightAware Approximate
05:12PM 38.0678 -91.9486 45° Northeast 431 496 31,000  Level Kansas City Center
05:13PM 38.1722 -91.8208 44° Northeast 433 498 31,000  Level Kansas City Center
05:14PM 38.2578 -91.7122 45° Northeast 433 498 31,000  Level Kansas City Center
05:15PM 38.3431 -91.6056 44° Northeast 430 495 31,000  Level Kansas City Center
05:16PM 38.4292 -91.4978 44° Northeast 431 496 31,000  Level Kansas City Center
05:18PM 38.5201 -91.3812 45° Northeast  Level FlightAware Approximate
05:18PM 38.6025 -91.2814 45° Northeast 433 498 31,000  Level Kansas City Center
05:19PM 38.6878 -91.1736 45° Northeast 433 498 31,000  Level Kansas City Center
05:20PM 38.7892 -91.0456 45° Northeast 429 494 31,000  Level Kansas City Center
05:21PM 38.8744 -90.9369 45° Northeast 429 494 31,000  Level Kansas City Center
05:23PM 38.9535 -90.8332 46° Northeast  Level FlightAware Approximate
05:25PM 39.1289 -90.6106 46° Northeast 431 496 31,000  Level Kansas City Center
05:26PM 39.2133 -90.5011 45° Northeast 430 495 31,000  Level Kansas City Center
05:27PM 39.2972 -90.3919 45° Northeast 428 493 31,000  Level Kansas City Center
05:28PM 39.3969 -90.2606 45° Northeast 426 490 31,000  Level Kansas City Center
05:29PM 39.4806 -90.1519 45° Northeast 426 490 31,000  Level Kansas City Center
05:30PM 39.4955 -90.1126 46° Northeast  Level FlightAware Approximate
05:31PM 39.6531 -89.9250 45° Northeast 426 490 31,000  Level Chicago Center
05:32PM 39.7361 -89.8169 45° Northeast 426 490 31,000  Level Chicago Center
05:34PM 39.9022 -89.5967 45° Northeast 427 491 31,000  Level Chicago Center
05:35PM 39.9867 -89.4889 44° Northeast 428 493 31,000  Level Chicago Center
05:37PM 40.1731 -89.2486 45° Northeast 428 493 31,000  Level Kansas City Center
05:39PM 40.3417 -89.0308 45° Northeast 429 494 31,000  Level Kansas City Center
05:41PM 40.4531 -88.8847 45° Northeast  Level FlightAware Approximate
05:41PM 40.5092 -88.8117 45° Northeast 427 491 31,000  Level Kansas City Center
05:43PM 40.6922 -88.5700 45° Northeast 428 493 31,000  Level Chicago Center
05:44PM 40.7761 -88.4586 45° Northeast 429 494 31,000  Level Chicago Center
05:45PM 40.8608 -88.3461 45° Northeast 432 497 31,000  Level Chicago Center
05:46PM 40.9622 -88.2125 45° Northeast 434 499 31,000  Level Chicago Center
05:47PM 41.0461 -88.0981 46° Northeast 436 502 31,000  Level Chicago Center
05:48PM 41.1292 -87.9864 45° Northeast 432 497 31,000  Level Chicago Center
05:49PM 41.2119 -87.8753 45° Northeast 431 496 31,000 -720 Level Chicago Center
05:51PM 41.2935 -87.7559 48° Northeast  Level FlightAware Approximate
05:53PM 41.4747 -87.5178 56° Northeast 434 499 28,100  Level Chicago Center
05:54PM 41.5603 -87.4047 45° Northeast 436 502 27,200 -960 Descending Chicago Center
05:55PM 41.6492 -87.2881 44° Northeast 450 518 26,200 -1,080 Descending Chicago Center
05:57PM 41.7878 -87.0715 49° Northeast  Level FlightAware Approximate
05:57PM 41.8458 -87.0294 49° Northeast 455 524 23,900  Level Chicago Center
05:58PM 41.8342 -86.9983 56° Northeast  Level FlightAware Approximate
05:59PM 41.9711 -86.8095 44° Northeast  Level FlightAware Approximate
06:00PM 42.0800 -86.6764 44° Northeast 424 488 18,400  Level Chicago Center
06:01PM 42.1389 -86.5133 64° Northeast 402 463 16,000 -1,140 Descending Chicago Center
06:03PM 42.3000 -86.3219 41° Northeast 385 443 14,900 -360 Descending Chicago Center
06:04PM 42.3775 -86.2308 41° Northeast 391 450 14,900 -780 Level Chicago Center
06:06PM 42.5015 -86.0557 52° Northeast  Level FlightAware Approximate
06:07PM 42.6339 -85.9256 48° Northeast 380 437 11,800  Level Chicago Center
06:08PM 42.6983 -85.8481 41° Northeast 317 365 10,200 -2,040 Descending Chicago Center
06:09PM 42.7578 -85.7867 37° Northeast 280 322 7,700 -2,940 Descending Chicago Center
06:10PM 42.8381 -85.7372 24° Northeast 267 307 4,200 -1,980 Descending Chicago Center
06:12PM 42.8714 -85.5917 73° East 212 244 1,600 -1,080 Descending Chicago Center
06:13PM 42.8667 -85.5167 48° Northeast  Level FlightAware Approximate
06:13PM 42.8781 -85.5294 82° East 185 213 1,000  Level Chicago Center